sensor_id;sensor_type;location;lat;lon;timestamp;pressure;altitude;pressure_sealevel;temperature;humidity
59767;BME280;46248;58.364;25.582;2022-10-15T00:01:08;100752.50;;;8.19;86.80
59767;BME280;46248;58.364;25.582;2022-10-15T00:04:31;100741.34;;;8.15;86.50
59767;BME280;46248;58.364;25.582;2022-10-15T00:07:54;100741.13;;;8.21;85.83
59767;BME280;46248;58.364;25.582;2022-10-15T00:11:17;100747.06;;;8.25;86.14
59767;BME280;46248;58.364;25.582;2022-10-15T00:14:40;100751.28;;;8.29;86.41
59767;BME280;46248;58.364;25.582;2022-10-15T00:18:02;100753.00;;;8.29;86.66
59767;BME280;46248;58.364;25.582;2022-10-15T00:21:23;100758.09;;;8.32;86.08
59767;BME280;46248;58.364;25.582;2022-10-15T00:24:47;100752.88;;;8.32;86.28
59767;BME280;46248;58.364;25.582;2022-10-15T00:28:09;100747.56;;;8.35;86.51
59767;BME280;46248;58.364;25.582;2022-10-15T00:31:31;100750.97;;;8.37;86.51
59767;BME280;46248;58.364;25.582;2022-10-15T00:34:53;100752.66;;;8.39;86.21
59767;BME280;46248;58.364;25.582;2022-10-15T00:38:15;100743.06;;;8.40;86.46
59767;BME280;46248;58.364;25.582;2022-10-15T00:41:40;100749.97;;;8.41;86.61
59767;BME280;46248;58.364;25.582;2022-10-15T00:45:03;100740.53;;;8.38;86.29
59767;BME280;46248;58.364;25.582;2022-10-15T00:48:25;100743.91;;;8.40;86.24
59767;BME280;46248;58.364;25.582;2022-10-15T00:51:53;100719.16;;;8.27;86.10
59767;BME280;46248;58.364;25.582;2022-10-15T00:55:24;100740.53;;;8.37;85.83
59767;BME280;46248;58.364;25.582;2022-10-15T00:58:49;100741.59;;;8.31;85.86
59767;BME280;46248;58.364;25.582;2022-10-15T01:02:13;100723.91;;;8.17;86.11
59767;BME280;46248;58.364;25.582;2022-10-15T01:05:36;100731.59;;;8.20;85.86
59767;BME280;46248;58.364;25.582;2022-10-15T01:08:59;100734.44;;;8.14;85.65
59767;BME280;46248;58.364;25.582;2022-10-15T01:12:27;100715.13;;;7.96;86.09
59767;BME280;46248;58.364;25.582;2022-10-15T01:16:01;100722.13;;;7.94;86.42
59767;BME280;46248;58.364;25.582;2022-10-15T01:19:36;100733.28;;;7.98;86.60
59767;BME280;46248;58.364;25.582;2022-10-15T01:23:14;100734.38;;;7.92;87.39
59767;BME280;46248;58.364;25.582;2022-10-15T01:30:46;100743.47;;;7.80;86.77
59767;BME280;46248;58.364;25.582;2022-10-15T01:34:13;100748.88;;;7.76;86.86
59767;BME280;46248;58.364;25.582;2022-10-15T01:37:50;100744.00;;;7.67;87.11
59767;BME280;46248;58.364;25.582;2022-10-15T01:41:19;100744.22;;;7.61;87.19
59767;BME280;46248;58.364;25.582;2022-10-15T01:44:48;100734.03;;;7.53;86.57
59767;BME280;46248;58.364;25.582;2022-10-15T01:48:13;100740.38;;;7.46;86.84
59767;BME280;46248;58.364;25.582;2022-10-15T01:51:37;100732.78;;;7.40;87.28
59767;BME280;46248;58.364;25.582;2022-10-15T01:55:02;100737.28;;;7.34;86.84
59767;BME280;46248;58.364;25.582;2022-10-15T01:58:27;100734.91;;;7.28;86.70
59767;BME280;46248;58.364;25.582;2022-10-15T02:01:50;100721.31;;;7.20;87.07
59767;BME280;46248;58.364;25.582;2022-10-15T02:05:22;100731.81;;;7.17;87.69
59767;BME280;46248;58.364;25.582;2022-10-15T02:08:55;100736.38;;;7.10;87.65
59767;BME280;46248;58.364;25.582;2022-10-15T02:12:30;100730.59;;;7.02;87.60
59767;BME280;46248;58.364;25.582;2022-10-15T02:16:01;100731.56;;;6.98;87.52
59767;BME280;46248;58.364;25.582;2022-10-15T02:19:30;100719.69;;;6.89;88.13
59767;BME280;46248;58.364;25.582;2022-10-15T02:23:02;100712.25;;;6.79;88.12
59767;BME280;46248;58.364;25.582;2022-10-15T02:26:28;100704.78;;;6.68;87.99
59767;BME280;46248;58.364;25.582;2022-10-15T02:29:52;100734.03;;;6.76;87.89
59767;BME280;46248;58.364;25.582;2022-10-15T02:33:17;100734.22;;;6.70;87.59
59767;BME280;46248;58.364;25.582;2022-10-15T02:36:41;100728.38;;;6.63;87.17
59767;BME280;46248;58.364;25.582;2022-10-15T02:40:06;100730.31;;;6.57;86.99
59767;BME280;46248;58.364;25.582;2022-10-15T02:43:29;100713.47;;;6.40;86.56
59767;BME280;46248;58.364;25.582;2022-10-15T02:46:51;100727.22;;;6.44;86.44
59767;BME280;46248;58.364;25.582;2022-10-15T02:50:13;100723.97;;;6.37;86.28
59767;BME280;46248;58.364;25.582;2022-10-15T02:53:35;100722.38;;;6.32;86.06
59767;BME280;46248;58.364;25.582;2022-10-15T02:56:58;100719.13;;;6.25;86.55
59767;BME280;46248;58.364;25.582;2022-10-15T03:00:21;100715.06;;;6.16;86.63
59767;BME280;46248;58.364;25.582;2022-10-15T03:03:42;100718.75;;;6.09;87.19
59767;BME280;46248;58.364;25.582;2022-10-15T03:07:04;100716.31;;;6.03;87.89
59767;BME280;46248;58.364;25.582;2022-10-15T03:10:26;100726.00;;;5.98;87.87
59767;BME280;46248;58.364;25.582;2022-10-15T03:13:49;100707.03;;;5.94;87.83
59767;BME280;46248;58.364;25.582;2022-10-15T03:17:11;100715.00;;;5.88;88.10
59767;BME280;46248;58.364;25.582;2022-10-15T03:20:33;100683.41;;;5.72;89.22
59767;BME280;46248;58.364;25.582;2022-10-15T03:23:55;100707.38;;;5.82;89.40
59767;BME280;46248;58.364;25.582;2022-10-15T03:27:16;100704.00;;;5.79;89.77
59767;BME280;46248;58.364;25.582;2022-10-15T03:30:40;100703.19;;;5.77;89.96
59767;BME280;46248;58.364;25.582;2022-10-15T03:34:02;100691.28;;;5.69;89.99
59767;BME280;46248;58.364;25.582;2022-10-15T03:37:24;100695.56;;;5.70;90.74
59767;BME280;46248;58.364;25.582;2022-10-15T03:40:46;100705.16;;;5.68;90.87
59767;BME280;46248;58.364;25.582;2022-10-15T03:44:09;100701.75;;;5.66;90.77
59767;BME280;46248;58.364;25.582;2022-10-15T03:47:33;100702.69;;;5.64;91.02
59767;BME280;46248;58.364;25.582;2022-10-15T03:50:55;100696.69;;;5.62;91.23
59767;BME280;46248;58.364;25.582;2022-10-15T03:54:17;100685.63;;;5.55;91.48
59767;BME280;46248;58.364;25.582;2022-10-15T03:57:39;100698.69;;;5.52;91.27
59767;BME280;46248;58.364;25.582;2022-10-15T04:01:01;100690.16;;;5.47;91.20
59767;BME280;46248;58.364;25.582;2022-10-15T04:04:25;100695.25;;;5.51;91.17
59767;BME280;46248;58.364;25.582;2022-10-15T04:07:47;100697.94;;;5.47;91.15
59767;BME280;46248;58.364;25.582;2022-10-15T04:11:09;100688.66;;;5.38;91.38
59767;BME280;46248;58.364;25.582;2022-10-15T04:14:30;100694.66;;;5.42;91.52
59767;BME280;46248;58.364;25.582;2022-10-15T04:17:52;100692.22;;;5.36;91.26
59767;BME280;46248;58.364;25.582;2022-10-15T04:21:16;100698.19;;;5.38;92.21
59767;BME280;46248;58.364;25.582;2022-10-15T04:24:38;100703.44;;;5.36;91.81
59767;BME280;46248;58.364;25.582;2022-10-15T04:28:01;100689.91;;;5.25;91.69
59767;BME280;46248;58.364;25.582;2022-10-15T04:31:22;100693.31;;;5.27;92.42
59767;BME280;46248;58.364;25.582;2022-10-15T04:34:45;100694.25;;;5.23;92.17
59767;BME280;46248;58.364;25.582;2022-10-15T04:38:09;100698.44;;;5.28;92.71
59767;BME280;46248;58.364;25.582;2022-10-15T04:41:31;100695.00;;;5.28;93.34
59767;BME280;46248;58.364;25.582;2022-10-15T04:44:52;100694.16;;;5.27;93.33
59767;BME280;46248;58.364;25.582;2022-10-15T04:48:14;100707.09;;;5.29;93.50
59767;BME280;46248;58.364;25.582;2022-10-15T04:51:36;100686.56;;;5.20;92.90
59767;BME280;46248;58.364;25.582;2022-10-15T04:54:59;100705.31;;;5.31;93.53
59767;BME280;46248;58.364;25.582;2022-10-15T04:58:22;100695.75;;;5.33;93.95
59767;BME280;46248;58.364;25.582;2022-10-15T05:01:44;100688.88;;;5.31;93.82
59767;BME280;46248;58.364;25.582;2022-10-15T05:05:07;100695.66;;;5.36;94.20
59767;BME280;46248;58.364;25.582;2022-10-15T05:08:30;100693.81;;;5.40;94.44
59767;BME280;46248;58.364;25.582;2022-10-15T05:11:53;100681.66;;;5.42;94.84
59767;BME280;46248;58.364;25.582;2022-10-15T05:15:15;100694.34;;;5.53;94.97
59767;BME280;46248;58.364;25.582;2022-10-15T05:18:37;100687.38;;;5.55;95.28
59767;BME280;46248;58.364;25.582;2022-10-15T05:22:00;100690.66;;;5.60;95.17
59767;BME280;46248;58.364;25.582;2022-10-15T05:25:22;100687.88;;;5.67;95.07
59767;BME280;46248;58.364;25.582;2022-10-15T05:28:45;100693.72;;;5.76;95.05
59767;BME280;46248;58.364;25.582;2022-10-15T05:32:07;100694.41;;;5.81;94.96
59767;BME280;46248;58.364;25.582;2022-10-15T05:35:29;100690.84;;;5.85;94.81
59767;BME280;46248;58.364;25.582;2022-10-15T05:38:53;100699.25;;;5.94;94.87
59767;BME280;46248;58.364;25.582;2022-10-15T05:42:15;100689.75;;;5.92;94.57
59767;BME280;46248;58.364;25.582;2022-10-15T05:45:38;100697.09;;;6.09;94.49
59767;BME280;46248;58.364;25.582;2022-10-15T05:49:01;100701.22;;;6.16;94.49
59767;BME280;46248;58.364;25.582;2022-10-15T05:52:23;100702.72;;;6.23;94.75
59767;BME280;46248;58.364;25.582;2022-10-15T05:55:45;100698.09;;;6.33;94.51
59767;BME280;46248;58.364;25.582;2022-10-15T05:59:07;100689.28;;;6.38;94.67
59767;BME280;46248;58.364;25.582;2022-10-15T06:02:31;100695.88;;;6.49;94.52
59767;BME280;46248;58.364;25.582;2022-10-15T06:05:53;100693.94;;;6.55;94.24
59767;BME280;46248;58.364;25.582;2022-10-15T06:09:15;100692.78;;;6.64;94.21
59767;BME280;46248;58.364;25.582;2022-10-15T06:12:37;100691.78;;;6.68;94.33
59767;BME280;46248;58.364;25.582;2022-10-15T06:15:58;100698.41;;;6.78;93.76
59767;BME280;46248;58.364;25.582;2022-10-15T06:19:22;100690.31;;;6.86;93.79
59767;BME280;46248;58.364;25.582;2022-10-15T06:22:44;100685.88;;;6.89;94.34
59767;BME280;46248;58.364;25.582;2022-10-15T06:26:08;100683.72;;;7.02;93.97
59767;BME280;46248;58.364;25.582;2022-10-15T06:29:31;100686.91;;;7.10;93.50
59767;BME280;46248;58.364;25.582;2022-10-15T06:32:53;100683.19;;;7.18;94.28
59767;BME280;46248;58.364;25.582;2022-10-15T06:36:16;100683.66;;;7.29;93.46
59767;BME280;46248;58.364;25.582;2022-10-15T06:39:38;100685.94;;;7.38;93.18
59767;BME280;46248;58.364;25.582;2022-10-15T06:43:05;100686.59;;;7.45;92.35
59767;BME280;46248;58.364;25.582;2022-10-15T06:46:28;100682.84;;;7.52;92.52
59767;BME280;46248;58.364;25.582;2022-10-15T06:49:50;100671.47;;;7.54;91.81
59767;BME280;46248;58.364;25.582;2022-10-15T06:53:14;100692.69;;;7.69;91.60
59767;BME280;46248;58.364;25.582;2022-10-15T06:56:36;100675.16;;;7.72;91.23
59767;BME280;46248;58.364;25.582;2022-10-15T06:59:58;100685.28;;;7.80;91.03
59767;BME280;46248;58.364;25.582;2022-10-15T07:03:20;100676.41;;;7.86;90.88
59767;BME280;46248;58.364;25.582;2022-10-15T07:06:43;100685.63;;;7.94;89.95
59767;BME280;46248;58.364;25.582;2022-10-15T07:10:07;100681.09;;;7.99;90.51
59767;BME280;46248;58.364;25.582;2022-10-15T07:13:29;100699.78;;;8.11;89.79
59767;BME280;46248;58.364;25.582;2022-10-15T07:16:51;100692.59;;;8.17;89.46
59767;BME280;46248;58.364;25.582;2022-10-15T07:20:14;100686.38;;;8.20;89.75
59767;BME280;46248;58.364;25.582;2022-10-15T07:23:43;100679.47;;;8.19;88.96
59767;BME280;46248;58.364;25.582;2022-10-15T07:27:06;100694.53;;;8.34;88.97
59767;BME280;46248;58.364;25.582;2022-10-15T07:30:38;100663.91;;;8.17;88.43
59767;BME280;46248;58.364;25.582;2022-10-15T07:34:00;100688.84;;;8.46;88.66
59767;BME280;46248;58.364;25.582;2022-10-15T07:37:22;100689.53;;;8.52;88.17
59767;BME280;46248;58.364;25.582;2022-10-15T07:40:45;100696.28;;;8.57;87.87
59767;BME280;46248;58.364;25.582;2022-10-15T07:44:08;100699.56;;;8.62;87.58
59767;BME280;46248;58.364;25.582;2022-10-15T07:47:30;100696.69;;;8.68;87.25
59767;BME280;46248;58.364;25.582;2022-10-15T07:50:55;100705.97;;;8.76;87.37
59767;BME280;46248;58.364;25.582;2022-10-15T07:54:18;100697.94;;;8.80;87.23
59767;BME280;46248;58.364;25.582;2022-10-15T07:57:39;100706.38;;;8.87;86.67
59767;BME280;46248;58.364;25.582;2022-10-15T08:01:03;100688.81;;;8.90;86.75
59767;BME280;46248;58.364;25.582;2022-10-15T08:04:26;100699.69;;;9.02;85.96
59767;BME280;46248;58.364;25.582;2022-10-15T08:07:48;100698.41;;;9.10;86.05
59767;BME280;46248;58.364;25.582;2022-10-15T08:11:12;100661.53;;;8.98;85.12
59767;BME280;46248;58.364;25.582;2022-10-15T08:14:35;100706.28;;;9.31;84.92
59767;BME280;46248;58.364;25.582;2022-10-15T08:17:59;100684.44;;;9.32;84.72
59767;BME280;46248;58.364;25.582;2022-10-15T08:21:21;100693.38;;;9.47;84.52
59767;BME280;46248;58.364;25.582;2022-10-15T08:24:43;100683.72;;;9.49;84.27
59767;BME280;46248;58.364;25.582;2022-10-15T08:28:05;100685.88;;;9.59;83.94
59767;BME280;46248;58.364;25.582;2022-10-15T08:31:34;100676.13;;;9.63;83.71
59767;BME280;46248;58.364;25.582;2022-10-15T08:34:57;100684.34;;;9.74;83.60
59767;BME280;46248;58.364;25.582;2022-10-15T08:38:19;100673.50;;;9.82;83.14
59767;BME280;46248;58.364;25.582;2022-10-15T08:41:44;100669.81;;;9.86;82.96
59767;BME280;46248;58.364;25.582;2022-10-15T08:45:11;100661.09;;;9.87;82.11
59767;BME280;46248;58.364;25.582;2022-10-15T08:48:38;100666.88;;;9.94;82.25
59767;BME280;46248;58.364;25.582;2022-10-15T08:52:15;100667.72;;;9.94;81.08
59767;BME280;46248;58.364;25.582;2022-10-15T08:55:42;100674.88;;;9.91;81.66
59767;BME280;46248;58.364;25.582;2022-10-15T08:59:15;100686.59;;;10.01;81.84
59767;BME280;46248;58.364;25.582;2022-10-15T09:02:47;100644.41;;;9.90;81.63
59767;BME280;46248;58.364;25.582;2022-10-15T09:06:14;100673.66;;;10.17;81.56
59767;BME280;46248;58.364;25.582;2022-10-15T09:09:45;100663.34;;;10.14;80.38
59767;BME280;46248;58.364;25.582;2022-10-15T09:13:11;100687.78;;;10.31;80.72
59767;BME280;46248;58.364;25.582;2022-10-15T09:16:38;100688.00;;;10.46;80.78
59767;BME280;46248;58.364;25.582;2022-10-15T09:20:03;100689.31;;;10.54;79.45
59767;BME280;46248;58.364;25.582;2022-10-15T09:23:28;100703.97;;;10.59;79.57
59767;BME280;46248;58.364;25.582;2022-10-15T09:27:01;100695.06;;;10.63;79.51
59767;BME280;46248;58.364;25.582;2022-10-15T09:30:31;100699.06;;;10.70;79.39
59767;BME280;46248;58.364;25.582;2022-10-15T09:34:00;100696.06;;;10.77;79.21
59767;BME280;46248;58.364;25.582;2022-10-15T09:37:27;100680.06;;;10.84;79.22
59767;BME280;46248;58.364;25.582;2022-10-15T09:41:00;100653.84;;;10.84;78.59
59767;BME280;46248;58.364;25.582;2022-10-15T09:44:35;100683.22;;;11.08;77.94
59767;BME280;46248;58.364;25.582;2022-10-15T09:47:58;100668.41;;;11.07;77.74
59767;BME280;46248;58.364;25.582;2022-10-15T09:51:25;100678.72;;;11.27;78.34
59767;BME280;46248;58.364;25.582;2022-10-15T09:54:55;100679.75;;;11.40;77.14
59767;BME280;46248;58.364;25.582;2022-10-15T09:58:22;100684.19;;;11.56;77.68
59767;BME280;46248;58.364;25.582;2022-10-15T10:01:57;100676.28;;;11.73;77.38
59767;BME280;46248;58.364;25.582;2022-10-15T10:05:27;100687.28;;;11.97;77.14
59767;BME280;46248;58.364;25.582;2022-10-15T10:08:51;100700.00;;;12.21;76.08
59767;BME280;46248;58.364;25.582;2022-10-15T10:12:18;100696.69;;;12.33;76.32
59767;BME280;46248;58.364;25.582;2022-10-15T10:15:42;100698.97;;;12.39;75.65
59767;BME280;46248;58.364;25.582;2022-10-15T10:19:12;100682.97;;;12.44;75.29
59767;BME280;46248;58.364;25.582;2022-10-15T10:22:41;100684.91;;;12.56;75.45
59767;BME280;46248;58.364;25.582;2022-10-15T10:26:09;100684.38;;;12.65;75.00
59767;BME280;46248;58.364;25.582;2022-10-15T10:29:36;100684.69;;;12.75;74.89
59767;BME280;46248;58.364;25.582;2022-10-15T10:33:01;100690.91;;;12.74;74.38
59767;BME280;46248;58.364;25.582;2022-10-15T10:36:27;100686.91;;;12.67;74.44
59767;BME280;46248;58.364;25.582;2022-10-15T10:39:55;100698.09;;;12.70;73.93
59767;BME280;46248;58.364;25.582;2022-10-15T10:43:20;100693.94;;;12.66;74.31
59767;BME280;46248;58.364;25.582;2022-10-15T10:46:44;100691.22;;;12.68;74.51
59767;BME280;46248;58.364;25.582;2022-10-15T10:50:31;100686.66;;;12.71;73.58
59767;BME280;46248;58.364;25.582;2022-10-15T10:53:56;100688.94;;;12.77;73.91
59767;BME280;46248;58.364;25.582;2022-10-15T10:57:36;100689.31;;;12.86;73.23
59767;BME280;46248;58.364;25.582;2022-10-15T11:01:00;100693.66;;;12.87;73.57
59767;BME280;46248;58.364;25.582;2022-10-15T11:04:24;100693.00;;;12.83;73.60
59767;BME280;46248;58.364;25.582;2022-10-15T11:07:50;100691.03;;;12.87;73.16
59767;BME280;46248;58.364;25.582;2022-10-15T11:11:22;100638.66;;;12.53;73.46
59767;BME280;46248;58.364;25.582;2022-10-15T11:14:51;100691.94;;;12.86;73.16
59767;BME280;46248;58.364;25.582;2022-10-15T11:18:30;100689.41;;;12.84;71.99
59767;BME280;46248;58.364;25.582;2022-10-15T11:22:05;100696.09;;;12.90;72.57
59767;BME280;46248;58.364;25.582;2022-10-15T11:25:37;100685.50;;;12.91;72.60
59767;BME280;46248;58.364;25.582;2022-10-15T11:29:11;100683.88;;;12.89;72.74
59767;BME280;46248;58.364;25.582;2022-10-15T11:32:44;100690.09;;;12.88;73.19
59767;BME280;46248;58.364;25.582;2022-10-15T11:36:52;100689.50;;;12.82;72.02
59767;BME280;46248;58.364;25.582;2022-10-15T11:40:19;100694.94;;;12.79;73.15
59767;BME280;46248;58.364;25.582;2022-10-15T11:43:57;100691.94;;;12.86;73.00
59767;BME280;46248;58.364;25.582;2022-10-15T11:47:34;100690.56;;;12.94;73.13
59767;BME280;46248;58.364;25.582;2022-10-15T11:51:02;100681.41;;;13.01;72.15
59767;BME280;46248;58.364;25.582;2022-10-15T11:54:29;100672.56;;;13.02;72.65
59767;BME280;46248;58.364;25.582;2022-10-15T11:57:57;100671.56;;;13.05;72.48
59767;BME280;46248;58.364;25.582;2022-10-15T12:01:26;100682.28;;;13.16;72.35
59767;BME280;46248;58.364;25.582;2022-10-15T12:04:54;100672.25;;;13.23;72.04
59767;BME280;46248;58.364;25.582;2022-10-15T12:08:19;100681.03;;;13.38;72.14
59767;BME280;46248;58.364;25.582;2022-10-15T12:11:47;100672.66;;;13.45;72.01
59767;BME280;46248;58.364;25.582;2022-10-15T12:15:23;100671.53;;;13.64;70.77
59767;BME280;46248;58.364;25.582;2022-10-15T12:18:52;100670.50;;;13.66;70.93
59767;BME280;46248;58.364;25.582;2022-10-15T12:22:33;100676.59;;;13.67;70.31
59767;BME280;46248;58.364;25.582;2022-10-15T12:25:56;100669.94;;;13.61;71.15
59767;BME280;46248;58.364;25.582;2022-10-15T12:29:20;100655.28;;;13.57;71.21
59767;BME280;46248;58.364;25.582;2022-10-15T12:32:44;100654.63;;;13.54;71.32
59767;BME280;46248;58.364;25.582;2022-10-15T12:36:20;100668.44;;;13.71;70.78
59767;BME280;46248;58.364;25.582;2022-10-15T12:39:54;100662.88;;;13.76;70.85
59767;BME280;46248;58.364;25.582;2022-10-15T12:43:19;100663.25;;;13.70;71.17
59767;BME280;46248;58.364;25.582;2022-10-15T12:46:41;100666.34;;;13.77;71.24
59767;BME280;46248;58.364;25.582;2022-10-15T12:50:05;100670.03;;;13.74;70.85
59767;BME280;46248;58.364;25.582;2022-10-15T12:53:31;100651.44;;;13.63;70.42
59767;BME280;46248;58.364;25.582;2022-10-15T12:56:55;100660.81;;;13.67;70.79
59767;BME280;46248;58.364;25.582;2022-10-15T13:00:41;100649.94;;;13.59;70.59
59767;BME280;46248;58.364;25.582;2022-10-15T13:04:03;100660.34;;;13.60;70.93
59767;BME280;46248;58.364;25.582;2022-10-15T13:07:25;100644.09;;;13.54;71.20
59767;BME280;46248;58.364;25.582;2022-10-15T13:10:50;100657.66;;;13.62;71.19
59767;BME280;46248;58.364;25.582;2022-10-15T13:14:25;100646.75;;;13.54;71.10
59767;BME280;46248;58.364;25.582;2022-10-15T13:17:48;100659.97;;;13.66;71.43
59767;BME280;46248;58.364;25.582;2022-10-15T13:21:14;100587.16;;;13.24;70.84
59767;BME280;46248;58.364;25.582;2022-10-15T13:24:42;100649.75;;;13.62;71.00
59767;BME280;46248;58.364;25.582;2022-10-15T13:28:27;100652.56;;;13.59;70.79
59767;BME280;46248;58.364;25.582;2022-10-15T13:36:19;100612.69;;;13.22;71.53
59767;BME280;46248;58.364;25.582;2022-10-15T13:39:44;100645.91;;;13.39;71.66
59767;BME280;46248;58.364;25.582;2022-10-15T13:43:15;100635.94;;;13.29;71.85
59767;BME280;46248;58.364;25.582;2022-10-15T13:46:37;100644.28;;;13.36;72.33
59767;BME280;46248;58.364;25.582;2022-10-15T13:50:15;100638.19;;;13.36;71.90
59767;BME280;46248;58.364;25.582;2022-10-15T13:53:40;100644.09;;;13.39;72.18
59767;BME280;46248;58.364;25.582;2022-10-15T13:57:02;100643.25;;;13.39;72.18
59767;BME280;46248;58.364;25.582;2022-10-15T14:00:27;100640.63;;;13.39;71.96
59767;BME280;46248;58.364;25.582;2022-10-15T14:03:50;100627.66;;;13.36;71.97
59767;BME280;46248;58.364;25.582;2022-10-15T14:07:22;100630.09;;;13.39;72.23
59767;BME280;46248;58.364;25.582;2022-10-15T14:10:49;100629.94;;;13.42;72.14
59767;BME280;46248;58.364;25.582;2022-10-15T14:14:29;100627.38;;;13.40;72.14
59767;BME280;46248;58.364;25.582;2022-10-15T14:17:51;100619.66;;;13.37;72.41
59767;BME280;46248;58.364;25.582;2022-10-15T14:21:16;100633.13;;;13.33;72.33
59767;BME280;46248;58.364;25.582;2022-10-15T14:24:38;100631.63;;;13.28;72.42
59767;BME280;46248;58.364;25.582;2022-10-15T14:28:02;100629.22;;;13.24;72.65
59767;BME280;46248;58.364;25.582;2022-10-15T14:31:30;100623.50;;;13.17;72.67
59767;BME280;46248;58.364;25.582;2022-10-15T14:34:53;100640.28;;;13.15;72.89
59767;BME280;46248;58.364;25.582;2022-10-15T14:38:16;100613.97;;;13.00;72.86
59767;BME280;46248;58.364;25.582;2022-10-15T14:41:38;100624.59;;;12.99;72.79
59767;BME280;46248;58.364;25.582;2022-10-15T14:45:11;100624.13;;;12.92;72.62
59767;BME280;46248;58.364;25.582;2022-10-15T14:48:35;100633.69;;;12.93;72.50
59767;BME280;46248;58.364;25.582;2022-10-15T14:52:02;100634.81;;;12.89;72.95
59767;BME280;46248;58.364;25.582;2022-10-15T14:55:30;100635.19;;;12.83;72.41
59767;BME280;46248;58.364;25.582;2022-10-15T14:58:58;100640.69;;;12.78;72.84
59767;BME280;46248;58.364;25.582;2022-10-15T15:02:24;100628.09;;;12.69;73.04
59767;BME280;46248;58.364;25.582;2022-10-15T15:05:49;100649.19;;;12.68;73.01
59767;BME280;46248;58.364;25.582;2022-10-15T15:09:12;100636.75;;;12.55;72.90
59767;BME280;46248;58.364;25.582;2022-10-15T15:12:35;100637.13;;;12.49;72.78
59767;BME280;46248;58.364;25.582;2022-10-15T15:15:59;100640.78;;;12.47;73.24
59767;BME280;46248;58.364;25.582;2022-10-15T15:19:24;100636.63;;;12.43;73.08
59767;BME280;46248;58.364;25.582;2022-10-15T15:22:46;100640.25;;;12.40;73.09
59767;BME280;46248;58.364;25.582;2022-10-15T15:26:10;100645.88;;;12.34;73.38
59767;BME280;46248;58.364;25.582;2022-10-15T15:29:32;100639.19;;;12.28;73.31
59767;BME280;46248;58.364;25.582;2022-10-15T15:32:54;100621.59;;;12.14;72.82
59767;BME280;46248;58.364;25.582;2022-10-15T15:36:18;100645.81;;;12.20;73.31
59767;BME280;46248;58.364;25.582;2022-10-15T15:39:43;100645.22;;;12.14;73.62
59767;BME280;46248;58.364;25.582;2022-10-15T15:43:05;100643.44;;;11.99;73.65
59767;BME280;46248;58.364;25.582;2022-10-15T15:46:27;100661.38;;;12.07;73.88
59767;BME280;46248;58.364;25.582;2022-10-15T15:49:49;100663.31;;;12.03;74.02
59767;BME280;46248;58.364;25.582;2022-10-15T15:53:13;100652.50;;;11.94;73.97
59767;BME280;46248;58.364;25.582;2022-10-15T15:56:35;100658.69;;;11.93;74.37
59767;BME280;46248;58.364;25.582;2022-10-15T15:59:59;100642.69;;;11.80;74.57
59767;BME280;46248;58.364;25.582;2022-10-15T16:03:22;100653.66;;;11.88;74.78
59767;BME280;46248;58.364;25.582;2022-10-15T16:06:44;100642.13;;;11.75;75.27
59767;BME280;46248;58.364;25.582;2022-10-15T16:10:10;100652.53;;;11.76;75.20
59767;BME280;46248;58.364;25.582;2022-10-15T16:13:32;100657.09;;;11.73;75.64
59767;BME280;46248;58.364;25.582;2022-10-15T16:16:55;100658.94;;;11.70;75.80
59767;BME280;46248;58.364;25.582;2022-10-15T16:20:17;100662.59;;;11.68;76.18
59767;BME280;46248;58.364;25.582;2022-10-15T16:23:39;100669.03;;;11.62;76.96
59767;BME280;46248;58.364;25.582;2022-10-15T16:27:03;100663.00;;;11.60;76.81
59767;BME280;46248;58.364;25.582;2022-10-15T16:30:26;100662.16;;;11.60;77.03
59767;BME280;46248;58.364;25.582;2022-10-15T16:33:48;100654.69;;;11.52;76.94
59767;BME280;46248;58.364;25.582;2022-10-15T16:37:10;100655.47;;;11.54;77.41
59767;BME280;46248;58.364;25.582;2022-10-15T16:40:32;100667.63;;;11.55;77.10
59767;BME280;46248;58.364;25.582;2022-10-15T16:43:56;100670.25;;;11.55;77.51
59767;BME280;46248;58.364;25.582;2022-10-15T16:47:18;100675.59;;;11.54;77.42
59767;BME280;46248;58.364;25.582;2022-10-15T16:50:40;100674.91;;;11.50;77.96
59767;BME280;46248;58.364;25.582;2022-10-15T16:54:02;100679.28;;;11.50;77.75
59767;BME280;46248;58.364;25.582;2022-10-15T16:57:25;100681.22;;;11.46;77.70
59767;BME280;46248;58.364;25.582;2022-10-15T17:00:48;100684.78;;;11.45;77.78
59767;BME280;46248;58.364;25.582;2022-10-15T17:04:10;100686.72;;;11.41;78.01
59767;BME280;46248;58.364;25.582;2022-10-15T17:07:32;100681.47;;;11.41;77.85
59767;BME280;46248;58.364;25.582;2022-10-15T17:10:54;100682.38;;;11.40;77.93
59767;BME280;46248;58.364;25.582;2022-10-15T17:14:16;100681.63;;;11.38;78.01
59767;BME280;46248;58.364;25.582;2022-10-15T17:17:39;100669.69;;;11.33;78.33
59767;BME280;46248;58.364;25.582;2022-10-15T17:21:01;100681.13;;;11.32;78.32
59767;BME280;46248;58.364;25.582;2022-10-15T17:24:23;100669.91;;;11.28;78.28
59767;BME280;46248;58.364;25.582;2022-10-15T17:27:45;100678.56;;;11.30;78.56
59767;BME280;46248;58.364;25.582;2022-10-15T17:31:09;100674.56;;;11.23;78.79
59767;BME280;46248;58.364;25.582;2022-10-15T17:34:32;100685.75;;;11.27;78.79
59767;BME280;46248;58.364;25.582;2022-10-15T17:37:54;100691.97;;;11.24;78.85
59767;BME280;46248;58.364;25.582;2022-10-15T17:41:18;100659.78;;;11.05;78.65
59767;BME280;46248;58.364;25.582;2022-10-15T17:44:41;100692.91;;;11.23;78.76
59767;BME280;46248;58.364;25.582;2022-10-15T17:48:04;100679.09;;;11.19;79.12
59767;BME280;46248;58.364;25.582;2022-10-15T17:51:28;100689.59;;;11.19;78.97
59767;BME280;46248;58.364;25.582;2022-10-15T17:54:50;100682.75;;;11.17;78.82